createdAt,value
2023-04-15T00:01:19.477Z,7.65
2023-04-15T00:03:47.933Z,7.59
2023-04-15T00:06:15.753Z,7.56
2023-04-15T00:08:43.619Z,7.53
2023-04-15T00:11:11.645Z,7.49
2023-04-15T00:13:39.597Z,7.47
2023-04-15T00:16:08.621Z,7.44
2023-04-15T00:18:38.206Z,7.43
2023-04-15T00:21:05.939Z,7.41
2023-04-15T00:23:33.466Z,7.43
2023-04-15T00:26:01.017Z,7.43
2023-04-15T00:28:28.649Z,7.44
2023-04-15T00:30:56.480Z,7.43
2023-04-15T00:33:24.214Z,7.41
2023-04-15T00:35:51.845Z,7.38
2023-04-15T00:38:19.561Z,7.35
2023-04-15T00:40:47.445Z,7.33
2023-04-15T00:43:15.002Z,7.31
2023-04-15T00:45:43.461Z,7.29
2023-04-15T00:48:12.333Z,7.27
2023-04-15T00:50:39.889Z,7.25
2023-04-15T00:53:07.411Z,7.23
2023-04-15T00:55:36.256Z,7.22
2023-04-15T00:58:03.921Z,7.19
2023-04-15T01:00:31.638Z,7.19
2023-04-15T01:02:59.675Z,7.17
2023-04-15T01:05:28.687Z,7.16
2023-04-15T01:07:58.143Z,7.12
2023-04-15T01:10:25.749Z,7.10
2023-04-15T01:12:53.415Z,7.06
2023-04-15T01:15:21.309Z,7.03
2023-04-15T01:17:49.340Z,6.99
2023-04-15T01:20:17.255Z,6.94
2023-04-15T01:22:45.358Z,6.89
2023-04-15T01:25:19.538Z,6.85
2023-04-15T01:27:47.630Z,6.79
2023-04-15T01:30:15.705Z,6.76
2023-04-15T01:32:43.292Z,6.73
2023-04-15T01:35:10.867Z,6.70
2023-04-15T01:37:38.455Z,6.66
2023-04-15T01:40:07.974Z,6.63
2023-04-15T01:42:37.714Z,6.61
2023-04-15T01:45:07.177Z,6.57
2023-04-15T01:47:34.785Z,6.55
2023-04-15T01:50:02.938Z,6.50
2023-04-15T01:52:30.592Z,6.49
2023-04-15T01:54:58.344Z,6.43
2023-04-15T01:57:28.396Z,6.40
2023-04-15T01:59:56.088Z,6.38
2023-04-15T02:02:23.763Z,6.36
2023-04-15T02:04:51.410Z,6.35
2023-04-15T02:07:19.641Z,6.34
2023-04-15T02:09:47.693Z,6.30
2023-04-15T02:12:15.277Z,6.30
2023-04-15T02:14:42.869Z,6.28
2023-04-15T02:17:10.643Z,6.26
2023-04-15T02:19:39.314Z,6.27
2023-04-15T02:22:09.277Z,6.26
2023-04-15T02:24:36.869Z,6.24
2023-04-15T02:27:04.484Z,6.26
2023-04-15T02:29:32.894Z,6.27
2023-04-15T02:32:01.813Z,6.28
2023-04-15T02:34:29.525Z,6.28
2023-04-15T02:36:58.960Z,6.28
2023-04-15T02:39:27.345Z,6.27
2023-04-15T02:41:55.321Z,6.28
2023-04-15T02:44:24.930Z,6.27
2023-04-15T02:46:56.851Z,6.25
2023-04-15T02:49:25.558Z,6.22
2023-04-15T02:51:53.200Z,6.18
2023-04-15T02:54:26.085Z,6.16
2023-04-15T02:56:55.343Z,6.16
2023-04-15T02:59:23.396Z,6.15
2023-04-15T03:01:52.193Z,6.16
2023-04-15T03:04:20.002Z,6.15
2023-04-15T03:06:47.599Z,6.13
2023-04-15T03:09:15.338Z,6.12
2023-04-15T03:11:43.981Z,6.08
2023-04-15T03:14:12.128Z,6.03
2023-04-15T03:16:43.344Z,6.01
2023-04-15T03:19:10.865Z,5.98
2023-04-15T03:21:41.404Z,5.95
2023-04-15T03:24:09.967Z,5.93
2023-04-15T03:26:37.512Z,5.90
2023-04-15T03:29:11.678Z,5.87
2023-04-15T03:31:40.714Z,5.84
2023-04-15T03:34:08.409Z,5.83
2023-04-15T03:36:36.962Z,5.80
2023-04-15T03:39:04.527Z,5.78
2023-04-15T03:41:32.966Z,5.76
2023-04-15T03:44:00.610Z,5.76
2023-04-15T03:46:28.238Z,5.74
2023-04-15T03:48:55.831Z,5.73
2023-04-15T03:51:23.333Z,5.72
2023-04-15T03:53:51.193Z,5.68
2023-04-15T03:56:18.693Z,5.67
2023-04-15T03:58:46.717Z,5.64
2023-04-15T04:01:14.393Z,5.59
2023-04-15T04:03:42.515Z,5.58
2023-04-15T04:06:12.454Z,5.53
2023-04-15T04:08:40.024Z,5.48
2023-04-15T04:11:07.973Z,5.44
2023-04-15T04:13:35.523Z,5.40
2023-04-15T04:16:04.753Z,5.34
2023-04-15T04:18:33.362Z,5.28
2023-04-15T04:21:01.570Z,5.24
2023-04-15T04:23:29.228Z,5.24
2023-04-15T04:25:56.954Z,5.23
2023-04-15T04:28:24.474Z,5.19
2023-04-15T04:30:52.081Z,5.15
2023-04-15T04:33:22.431Z,5.11
2023-04-15T04:35:49.972Z,5.11
2023-04-15T04:38:17.519Z,5.10
2023-04-15T04:40:45.347Z,5.11
2023-04-15T04:43:13.257Z,5.14
2023-04-15T04:45:41.244Z,5.13
2023-04-15T04:48:10.509Z,5.13
2023-04-15T04:50:38.290Z,5.13
2023-04-15T04:53:06.051Z,5.14
2023-04-15T04:55:34.454Z,5.16
2023-04-15T04:58:01.977Z,5.18
2023-04-15T05:00:29.784Z,5.19
2023-04-15T05:02:57.659Z,5.19
2023-04-15T05:05:25.492Z,5.20
2023-04-15T05:07:53.409Z,5.21
2023-04-15T05:10:21.119Z,5.21
2023-04-15T05:12:48.707Z,5.24
2023-04-15T05:15:16.387Z,5.25
2023-04-15T05:17:44.741Z,5.26
2023-04-15T05:20:13.043Z,5.27
2023-04-15T05:22:40.910Z,5.30
2023-04-15T05:25:09.389Z,5.32
2023-04-15T05:27:37.017Z,5.33
2023-04-15T05:30:05.484Z,5.37
2023-04-15T05:32:33.065Z,5.39
2023-04-15T05:35:00.705Z,5.42
2023-04-15T05:37:28.262Z,5.46
2023-04-15T05:39:56.791Z,5.50
2023-04-15T05:42:25.227Z,5.54
2023-04-15T05:44:55.238Z,5.58
2023-04-15T05:47:22.978Z,5.65
2023-04-15T05:49:50.962Z,5.71
2023-04-15T05:52:18.835Z,5.78
2023-04-15T05:54:46.614Z,5.84
2023-04-15T05:57:14.235Z,5.91
2023-04-15T05:59:42.697Z,5.99
2023-04-15T06:02:10.606Z,6.06
2023-04-15T06:04:38.330Z,6.15
2023-04-15T06:07:06.239Z,6.23
2023-04-15T06:09:33.853Z,6.32
2023-04-15T06:12:02.178Z,6.38
2023-04-15T06:14:29.717Z,6.47
2023-04-15T06:16:58.191Z,6.53
2023-04-15T06:19:26.142Z,6.59
2023-04-15T06:21:53.689Z,6.67
2023-04-15T06:24:21.551Z,6.71
2023-04-15T06:26:49.102Z,6.75
2023-04-15T06:29:16.644Z,6.81
2023-04-15T06:31:44.228Z,6.89
2023-04-15T06:34:11.816Z,6.95
2023-04-15T06:36:39.351Z,7.02
2023-04-15T06:39:07.127Z,7.09
2023-04-15T06:41:35.535Z,7.16
2023-04-15T06:44:03.322Z,7.24
2023-04-15T06:46:30.959Z,7.32
2023-04-15T06:48:58.522Z,7.43
2023-04-15T06:51:26.790Z,7.57
2023-04-15T06:53:54.562Z,7.70
2023-04-15T06:56:22.038Z,7.84
2023-04-15T06:58:49.570Z,7.97
2023-04-15T07:01:19.977Z,8.10
2023-04-15T07:03:47.799Z,8.25
2023-04-15T07:06:15.374Z,8.41
2023-04-15T07:08:42.934Z,8.56
2023-04-15T07:11:11.515Z,8.72
2023-04-15T07:13:39.165Z,8.90
2023-04-15T07:16:06.834Z,9.01
2023-04-15T07:18:34.534Z,9.06
2023-04-15T07:21:04.698Z,9.14
2023-04-15T07:23:32.560Z,9.20
2023-04-15T07:26:00.997Z,9.24
2023-04-15T07:28:28.588Z,9.27
2023-04-15T07:30:57.360Z,9.25
2023-04-15T07:33:24.990Z,9.22
2023-04-15T07:35:52.540Z,9.22
2023-04-15T07:38:20.095Z,9.17
2023-04-15T07:40:48.429Z,9.16
2023-04-15T07:43:16.173Z,9.15
2023-04-15T07:45:43.855Z,9.19
2023-04-15T07:48:11.518Z,9.23
2023-04-15T07:50:39.541Z,9.24
2023-04-15T07:53:07.554Z,9.26
2023-04-15T07:55:35.112Z,9.32
2023-04-15T07:58:02.700Z,9.35
2023-04-15T08:00:30.571Z,9.40
2023-04-15T08:02:59.571Z,9.45
2023-04-15T08:05:27.315Z,9.45
2023-04-15T08:07:54.899Z,9.45
2023-04-15T08:10:22.834Z,9.53
2023-04-15T08:13:01.052Z,9.67
2023-04-15T08:15:28.700Z,9.79
2023-04-15T08:17:56.272Z,9.93
2023-04-15T08:20:24.093Z,10.04
2023-04-15T08:22:52.579Z,10.19
2023-04-15T08:25:20.623Z,10.31
2023-04-15T08:27:48.516Z,10.46
2023-04-15T08:30:16.220Z,10.58
2023-04-15T08:32:47.145Z,10.65
2023-04-15T08:35:15.467Z,10.76
2023-04-15T08:37:43.022Z,10.91
2023-04-15T08:40:11.573Z,11.01
2023-04-15T08:42:51.664Z,11.10
2023-04-15T08:45:20.646Z,11.13
2023-04-15T08:47:54.557Z,11.15
2023-04-15T08:50:25.309Z,11.16
2023-04-15T08:53:00.288Z,11.22
2023-04-15T08:55:36.169Z,11.22
2023-04-15T08:58:05.626Z,11.23
2023-04-15T09:00:34.043Z,11.19
2023-04-15T09:03:02.455Z,11.18
2023-04-15T09:05:33.772Z,11.21
2023-04-15T09:08:05.848Z,11.24
2023-04-15T09:10:33.927Z,11.31
2023-04-15T09:13:02.858Z,11.37
2023-04-15T09:15:33.007Z,11.43
2023-04-15T09:18:00.737Z,11.42
2023-04-15T09:20:32.303Z,11.44
2023-04-15T09:23:14.122Z,11.55
2023-04-15T09:25:42.589Z,11.64
2023-04-15T09:28:11.231Z,11.74
2023-04-15T09:30:38.991Z,11.78
2023-04-15T09:33:10.852Z,11.84
2023-04-15T09:35:38.669Z,11.85
2023-04-15T09:38:09.794Z,11.97
2023-04-15T09:40:41.354Z,12.03
2023-04-15T09:43:13.054Z,12.10
2023-04-15T09:45:51.662Z,12.20
2023-04-15T09:48:31.108Z,12.34
2023-04-15T09:51:01.387Z,12.42
2023-04-15T09:53:31.244Z,12.51
2023-04-15T09:56:02.358Z,12.56
2023-04-15T09:58:35.650Z,12.67
2023-04-15T10:01:06.559Z,12.79
2023-04-15T10:03:38.627Z,12.89
2023-04-15T10:06:06.893Z,12.92
2023-04-15T10:08:35.163Z,12.95
2023-04-15T10:11:04.602Z,12.96
2023-04-15T10:13:37.298Z,12.92
2023-04-15T10:16:13.828Z,12.86
2023-04-15T10:18:46.739Z,12.86
2023-04-15T10:21:18.458Z,12.91
2023-04-15T10:23:47.059Z,13.07
2023-04-15T10:26:17.380Z,13.17
2023-04-15T10:28:49.590Z,13.23
2023-04-15T10:31:18.555Z,13.21
2023-04-15T10:33:47.463Z,13.23
2023-04-15T10:36:18.960Z,13.25
2023-04-15T10:38:46.780Z,13.28
2023-04-15T10:41:20.998Z,13.33
2023-04-15T10:43:54.688Z,13.34
2023-04-15T10:46:35.282Z,13.33
2023-04-15T10:49:16.333Z,13.36
2023-04-15T10:51:53.589Z,13.33
2023-04-15T10:54:27.473Z,13.23
2023-04-15T10:57:01.699Z,13.15
2023-04-15T10:59:36.091Z,13.16
2023-04-15T11:02:08.195Z,13.27
2023-04-15T11:04:56.050Z,13.26
2023-04-15T11:07:56.496Z,13.28
2023-04-15T11:10:30.985Z,13.31
2023-04-15T11:13:05.576Z,13.28
2023-04-15T11:15:41.680Z,13.25
2023-04-15T11:18:10.435Z,13.35
2023-04-15T11:21:01.152Z,13.45
2023-04-15T11:23:39.142Z,13.51
2023-04-15T11:26:11.861Z,13.58
2023-04-15T11:28:42.800Z,13.57
2023-04-15T11:31:20.152Z,13.66
2023-04-15T11:34:01.625Z,13.81
2023-04-15T11:36:34.637Z,13.90
2023-04-15T11:39:02.373Z,14.03
2023-04-15T11:41:30.436Z,14.14
2023-04-15T11:43:57.978Z,14.27
2023-04-15T11:46:32.196Z,14.43
2023-04-15T11:49:00.398Z,14.58
2023-04-15T11:51:34.347Z,14.63
2023-04-15T11:54:02.544Z,14.62
2023-04-15T11:56:30.339Z,14.77
2023-04-15T11:58:59.888Z,14.88
2023-04-15T12:01:36.777Z,14.82
2023-04-15T12:04:17.619Z,14.70
2023-04-15T12:06:46.085Z,14.49
2023-04-15T12:09:15.691Z,14.53
2023-04-15T12:11:58.283Z,14.60
2023-04-15T12:14:29.674Z,14.75
2023-04-15T12:17:00.406Z,14.84
2023-04-15T12:19:48.369Z,14.99
2023-04-15T12:22:17.647Z,15.12
2023-04-15T12:24:47.953Z,15.03
2023-04-15T12:27:17.634Z,14.93
2023-04-15T12:29:45.399Z,14.87
2023-04-15T12:32:16.284Z,14.87
2023-04-15T12:34:51.038Z,14.89
2023-04-15T12:37:19.469Z,14.89
2023-04-15T12:39:50.106Z,14.94
2023-04-15T12:42:18.766Z,14.93
2023-04-15T12:44:47.074Z,14.91
2023-04-15T12:47:15.365Z,14.97
2023-04-15T12:49:42.996Z,15.02
2023-04-15T12:52:10.841Z,15.08
2023-04-15T12:54:39.873Z,15.23
2023-04-15T12:57:07.882Z,15.19
2023-04-15T12:59:36.481Z,15.04
2023-04-15T13:02:04.372Z,14.96
2023-04-15T13:04:32.214Z,14.92
2023-04-15T13:06:59.936Z,15.05
2023-04-15T13:09:27.442Z,15.18
2023-04-15T13:11:56.169Z,15.25
2023-04-15T13:14:23.781Z,15.27
2023-04-15T13:16:51.354Z,15.34
2023-04-15T13:19:18.904Z,15.46
2023-04-15T13:21:46.492Z,15.47
2023-04-15T13:24:14.063Z,15.37
2023-04-15T13:26:41.928Z,15.36
2023-04-15T13:29:09.867Z,15.27
2023-04-15T13:31:37.507Z,15.19
2023-04-15T13:34:05.660Z,15.14
2023-04-15T13:36:33.423Z,15.07
2023-04-15T13:39:01.103Z,14.97
2023-04-15T13:41:28.714Z,14.94
2023-04-15T13:43:56.637Z,14.99
2023-04-15T13:46:25.733Z,14.91
2023-04-15T13:48:53.606Z,14.73
2023-04-15T13:51:21.246Z,14.61
2023-04-15T13:53:48.839Z,14.55
2023-04-15T13:56:16.365Z,14.49
2023-04-15T13:58:43.913Z,14.37
2023-04-15T14:01:11.516Z,14.29
2023-04-15T14:03:39.509Z,14.26
2023-04-15T14:06:07.496Z,14.17
2023-04-15T14:08:35.218Z,14.12
2023-04-15T14:11:03.177Z,14.05
2023-04-15T14:13:31.349Z,14.01
2023-04-15T14:15:59.154Z,13.94
2023-04-15T14:18:27.202Z,13.87
2023-04-15T14:20:54.788Z,13.88
2023-04-15T14:23:23.858Z,14.05
2023-04-15T14:25:52.099Z,14.20
2023-04-15T14:28:19.800Z,14.19
2023-04-15T14:30:47.378Z,14.10
2023-04-15T14:33:14.952Z,14.09
2023-04-15T14:35:42.482Z,14.17
2023-04-15T14:38:11.532Z,14.30
2023-04-15T14:40:41.797Z,14.53
2023-04-15T14:43:11.863Z,14.64
2023-04-15T14:45:42.116Z,14.77
2023-04-15T14:48:12.705Z,14.86
2023-04-15T14:50:41.949Z,14.97
2023-04-15T14:53:09.775Z,14.91
2023-04-15T14:55:37.345Z,14.72
2023-04-15T14:58:06.085Z,14.59
2023-04-15T15:00:34.076Z,14.57
2023-04-15T15:03:02.126Z,14.51
2023-04-15T15:05:30.007Z,14.44
2023-04-15T15:07:57.705Z,14.26
2023-04-15T15:10:34.621Z,14.03
2023-04-15T15:13:13.111Z,13.84
2023-04-15T15:15:41.044Z,13.69
2023-04-15T15:18:08.741Z,13.55
2023-04-15T15:20:36.419Z,13.36
2023-04-15T15:23:03.918Z,13.19
2023-04-15T15:25:31.542Z,13.02
2023-04-15T15:27:59.213Z,12.88
2023-04-15T15:30:29.128Z,12.74
2023-04-15T15:32:56.654Z,12.63
2023-04-15T15:35:25.972Z,12.53
2023-04-15T15:37:55.944Z,12.45
2023-04-15T15:40:27.070Z,12.38
2023-04-15T15:42:54.621Z,12.27
2023-04-15T15:45:22.434Z,12.14
2023-04-15T15:47:52.704Z,12.05
2023-04-15T15:50:25.440Z,12.00
2023-04-15T15:52:53.360Z,11.94
2023-04-15T15:55:21.185Z,11.89
2023-04-15T15:57:49.870Z,11.85
2023-04-15T16:00:17.758Z,11.80
2023-04-15T16:05:16.212Z,11.63
2023-04-15T16:07:43.835Z,11.58
2023-04-15T16:10:12.483Z,11.53
2023-04-15T16:12:41.405Z,11.43
2023-04-15T16:15:10.821Z,11.34
2023-04-15T16:17:39.712Z,11.25
2023-04-15T16:20:08.270Z,11.20
2023-04-15T16:22:36.356Z,11.14
2023-04-15T16:25:04.272Z,11.06
2023-04-15T16:27:32.219Z,10.99
2023-04-15T16:30:00.515Z,10.91
2023-04-15T16:32:28.245Z,10.86
2023-04-15T16:35:03.688Z,10.82
2023-04-15T16:37:33.111Z,10.84
2023-04-15T16:40:05.506Z,10.85
2023-04-15T16:42:33.077Z,10.87
2023-04-15T16:45:00.719Z,10.85
2023-04-15T16:47:31.400Z,10.82
2023-04-15T16:50:01.376Z,10.74
2023-04-15T16:52:31.201Z,10.72
2023-04-15T16:54:58.806Z,10.67
2023-04-15T16:57:50.814Z,10.66
2023-04-15T17:00:14.747Z,10.62
2023-04-15T17:02:42.532Z,10.63
2023-04-15T17:05:10.213Z,10.64
2023-04-15T17:07:37.738Z,10.64
2023-04-15T17:10:06.023Z,10.62
2023-04-15T17:12:33.656Z,10.63
2023-04-15T17:15:01.314Z,10.59
2023-04-15T17:17:29.279Z,10.57
2023-04-15T17:19:56.852Z,10.50
2023-04-15T17:22:24.614Z,10.44
2023-04-15T17:24:52.257Z,10.35
2023-04-15T17:27:22.867Z,10.27
2023-04-15T17:29:50.635Z,10.20
2023-04-15T17:32:18.398Z,10.13
2023-04-15T17:34:49.883Z,10.07
2023-04-15T17:37:18.680Z,10.00
2023-04-15T17:39:46.435Z,9.94
2023-04-15T17:42:14.110Z,9.88
2023-04-15T17:44:41.696Z,9.83
2023-04-15T17:47:09.278Z,9.79
2023-04-15T17:49:37.819Z,9.72
2023-04-15T17:52:05.833Z,9.66
2023-04-15T17:54:33.479Z,9.60
2023-04-15T17:57:03.128Z,9.57
2023-04-15T17:59:30.846Z,9.52
2023-04-15T18:01:58.873Z,9.48
2023-04-15T18:04:26.848Z,9.44
2023-04-15T18:06:54.772Z,9.41
2023-04-15T18:09:22.457Z,9.40
2023-04-15T18:11:50.020Z,9.35
2023-04-15T18:14:30.746Z,9.31
2023-04-15T18:17:02.978Z,9.26
2023-04-15T18:19:30.959Z,9.24
2023-04-15T18:22:00.258Z,9.22
2023-04-15T18:24:28.520Z,9.20
2023-04-15T18:26:56.611Z,9.16
2023-04-15T18:29:25.232Z,9.15
2023-04-15T18:31:53.137Z,9.14
2023-04-15T18:34:20.716Z,9.12
2023-04-15T18:36:48.296Z,9.11
2023-04-15T18:39:16.748Z,9.10
2023-04-15T18:41:44.425Z,9.07
2023-04-15T18:44:11.931Z,9.03
2023-04-15T18:46:39.551Z,8.99
2023-04-15T18:49:07.352Z,8.95
2023-04-15T18:51:35.266Z,8.93
2023-04-15T18:54:02.777Z,8.91
2023-04-15T18:56:31.141Z,8.84
2023-04-15T18:59:08.903Z,8.77
2023-04-15T19:01:46.318Z,8.68
2023-04-15T19:04:14.285Z,8.63
2023-04-15T19:06:42.067Z,8.57
2023-04-15T19:09:09.677Z,8.54
2023-04-15T19:11:37.369Z,8.49
2023-04-15T19:14:05.081Z,8.44
2023-04-15T19:16:32.715Z,8.41
2023-04-15T19:19:00.810Z,8.41
2023-04-15T19:21:30.500Z,8.39
2023-04-15T19:23:58.310Z,8.38
2023-04-15T19:26:25.879Z,8.37
2023-04-15T19:28:53.928Z,8.36
2023-04-15T19:31:21.556Z,8.36
2023-04-15T19:33:49.085Z,8.35
2023-04-15T19:36:18.149Z,8.33
2023-04-15T19:38:45.967Z,8.33
2023-04-15T19:41:13.608Z,8.33
2023-04-15T19:43:41.223Z,8.31
2023-04-15T19:46:08.940Z,8.28
2023-04-15T19:48:36.840Z,8.25
2023-04-15T19:51:04.397Z,8.26
2023-04-15T19:53:32.005Z,8.24
2023-04-15T19:55:59.664Z,8.26
2023-04-15T19:58:27.218Z,8.24
2023-04-15T20:00:54.887Z,8.21
2023-04-15T20:03:23.664Z,8.21
2023-04-15T20:05:52.773Z,8.22
2023-04-15T20:08:20.743Z,8.20
2023-04-15T20:10:48.274Z,8.21
2023-04-15T20:13:18.218Z,8.22
2023-04-15T20:15:46.018Z,8.20
2023-04-15T20:18:13.626Z,8.18
2023-04-15T20:20:41.291Z,8.16
2023-04-15T20:23:08.919Z,8.16
2023-04-15T20:25:36.503Z,8.14
2023-04-15T20:28:04.116Z,8.11
2023-04-15T20:30:31.763Z,8.12
2023-04-15T20:33:00.425Z,8.12
2023-04-15T20:35:30.833Z,8.13
2023-04-15T20:37:58.602Z,8.13
2023-04-15T20:40:26.694Z,8.14
2023-04-15T20:42:54.291Z,8.15
2023-04-15T20:45:22.017Z,8.14
2023-04-15T20:47:49.562Z,8.16
2023-04-15T20:50:17.303Z,8.15
2023-04-15T20:52:47.119Z,8.18
2023-04-15T20:55:14.660Z,8.16
2023-04-15T20:57:42.279Z,8.18
2023-04-15T21:00:11.055Z,8.19
2023-04-15T21:02:38.906Z,8.18
2023-04-15T21:05:07.150Z,8.19
2023-04-15T21:07:34.691Z,8.20
2023-04-15T21:10:02.311Z,8.21
2023-04-15T21:12:29.865Z,8.21
2023-04-15T21:15:00.522Z,8.21
2023-04-15T21:17:31.395Z,8.20
2023-04-15T21:19:59.096Z,8.20
2023-04-15T21:22:26.916Z,8.22
2023-04-15T21:24:54.450Z,8.21
2023-04-15T21:27:25.687Z,8.21
2023-04-15T21:29:53.591Z,8.22
2023-04-15T21:32:24.289Z,8.22
2023-04-15T21:34:56.590Z,8.23
2023-04-15T21:37:29.453Z,8.23
2023-04-15T21:39:57.131Z,8.22
2023-04-15T21:42:24.803Z,8.22
2023-04-15T21:44:52.446Z,8.21
2023-04-15T21:47:20.406Z,8.20
2023-04-15T21:49:48.201Z,8.20
2023-04-15T21:52:15.845Z,8.20
2023-04-15T21:54:43.379Z,8.19
2023-04-15T21:57:11.162Z,8.19
2023-04-15T21:59:38.655Z,8.19
2023-04-15T22:02:06.280Z,8.19
2023-04-15T22:04:33.885Z,8.18
2023-04-15T22:07:02.394Z,8.18
2023-04-15T22:09:30.814Z,8.18
2023-04-15T22:12:08.266Z,8.19
2023-04-15T22:14:46.179Z,8.19
2023-04-15T22:17:23.765Z,8.19
2023-04-15T22:20:01.206Z,8.20
2023-04-15T22:22:44.075Z,8.23
2023-04-15T22:25:21.967Z,8.24
2023-04-15T22:27:59.855Z,8.24
2023-04-15T22:30:42.199Z,8.25
2023-04-15T22:33:19.920Z,8.25
2023-04-15T22:35:57.382Z,8.25
2023-04-15T22:38:34.844Z,8.26
2023-04-15T22:41:12.315Z,8.26
2023-04-15T22:43:49.774Z,8.25
2023-04-15T22:46:27.187Z,8.23
2023-04-15T22:49:09.219Z,8.24
2023-04-15T22:51:46.637Z,8.23
2023-04-15T22:54:24.614Z,8.22
2023-04-15T22:57:02.183Z,8.21
2023-04-15T22:59:39.692Z,8.21
2023-04-15T23:02:17.412Z,8.20
2023-04-15T23:04:55.261Z,8.19
2023-04-15T23:07:32.832Z,8.19
2023-04-15T23:10:10.539Z,8.19
2023-04-15T23:12:48.064Z,8.19
2023-04-15T23:15:25.757Z,8.18
2023-04-15T23:18:03.487Z,8.18
2023-04-15T23:20:41.110Z,8.19
2023-04-15T23:23:18.532Z,8.20
2023-04-15T23:25:56.261Z,8.20
2023-04-15T23:28:33.662Z,8.21
2023-04-15T23:31:11.155Z,8.22
2023-04-15T23:33:48.637Z,8.25
2023-04-15T23:36:27.268Z,8.25
2023-04-15T23:39:04.740Z,8.25
2023-04-15T23:41:42.114Z,8.26
2023-04-15T23:44:20.352Z,8.28
2023-04-15T23:46:57.790Z,8.27
2023-04-15T23:49:36.665Z,8.28
2023-04-15T23:52:14.579Z,8.28
2023-04-15T23:54:52.030Z,8.30
2023-04-15T23:57:29.470Z,8.30
